AAL2837 KORD-KBOS
Flight info
| Callsign | AAL2837 |
|---|---|
| Flight time | 1h 58m |
| Altitude | 37000 |
| Route | EBAKE WISMO POSTS PADDE SVM DKK PONCT JFUND2 |
| Aircraft | B738/M-SDE2E3FGHIRWXY/LB1 |
Departure
| Time | 2026-05-05 19:59 |
|---|---|
| Airport | Chicago O'Hare International Airport (KORD) |
Arrival
| Time | 2026-05-05 21:57 |
|---|---|
| Airport | Boston Logan International Airport (KBOS) |
| Time | Latitude | Longitude | Altitude | Speed | Heading |
|---|---|---|---|---|---|
| 2026-05-05 19:41 | 41.97356 | -87.88502 | 660 ft | 0 kts | 359° |
| 2026-05-05 19:51 | 41.97355 | -87.88502 | 660 ft | 0 kts | 359° |
| 2026-05-05 19:51 | 41.97342 | -87.88502 | 659 ft | 3 kts | 359° |
| 2026-05-05 19:51 | 41.97323 | -87.88501 | 659 ft | 3 kts | 359° |
| 2026-05-05 19:52 | 41.97304 | -87.88501 | 659 ft | 3 kts | 359° |
| 2026-05-05 19:52 | 41.97287 | -87.88500 | 659 ft | 3 kts | 359° |
| 2026-05-05 19:52 | 41.97268 | -87.88500 | 659 ft | 3 kts | 359° |
| 2026-05-05 19:52 | 41.97266 | -87.88500 | 659 ft | 0 kts | 359° |
| 2026-05-05 19:54 | 41.97267 | -87.88499 | 659 ft | 1 kts | 4° |
| 2026-05-05 19:55 | 41.97275 | -87.88480 | 662 ft | 3 kts | 83° |
| 2026-05-05 19:55 | 41.97275 | -87.88446 | 659 ft | 4 kts | 91° |
| 2026-05-05 19:55 | 41.97275 | -87.88387 | 659 ft | 10 kts | 90° |
| 2026-05-05 19:55 | 41.97274 | -87.88283 | 659 ft | 10 kts | 91° |
| 2026-05-05 19:56 | 41.97260 | -87.88164 | 659 ft | 14 kts | 101° |
| 2026-05-05 19:56 | 41.97246 | -87.88036 | 660 ft | 14 kts | 94° |
| 2026-05-05 19:56 | 41.97244 | -87.87912 | 660 ft | 13 kts | 91° |
| 2026-05-05 19:56 | 41.97225 | -87.87827 | 660 ft | 0 kts | 139° |
| 2026-05-05 19:57 | 41.97223 | -87.87827 | 660 ft | 1 kts | 148° |
| 2026-05-05 19:57 | 41.97214 | -87.87831 | 660 ft | 3 kts | 207° |
| 2026-05-05 19:57 | 41.97205 | -87.87911 | 662 ft | 14 kts | 259° |
| 2026-05-05 19:57 | 41.97148 | -87.88030 | 663 ft | 17 kts | 193° |
| 2026-05-05 19:58 | 41.97058 | -87.88032 | 666 ft | 10 kts | 179° |
| 2026-05-05 19:58 | 41.96988 | -87.88027 | 667 ft | 10 kts | 175° |
| 2026-05-05 19:58 | 41.96925 | -87.88051 | 667 ft | 10 kts | 221° |
| 2026-05-05 19:58 | 41.96693 | -87.88332 | 663 ft | 94 kts | 221° |
| 2026-05-05 19:59 | 41.95980 | -87.89180 | 770 ft | 170 kts | 223° |
| 2026-05-05 19:59 | 41.95015 | -87.90329 | 1567 ft | 202 kts | 225° |
| 2026-05-05 19:59 | 41.93797 | -87.91394 | 2562 ft | 220 kts | 200° |
| 2026-05-05 19:59 | 41.92248 | -87.91373 | 3421 ft | 225 kts | 161° |
| 2026-05-05 20:00 | 41.91056 | -87.90076 | 3906 ft | 225 kts | 120° |
| 2026-05-05 20:00 | 41.90745 | -87.88026 | 4117 ft | 238 kts | 79° |
| 2026-05-05 20:00 | 41.91538 | -87.86031 | 4488 ft | 256 kts | 42° |
| 2026-05-05 20:00 | 41.92962 | -87.84509 | 5141 ft | 270 kts | 32° |
| 2026-05-05 20:01 | 41.94545 | -87.83035 | 6140 ft | 277 kts | 30° |
| 2026-05-05 20:01 | 41.96128 | -87.81488 | 7011 ft | 287 kts | 34° |
| 2026-05-05 20:01 | 41.97645 | -87.79699 | 7799 ft | 300 kts | 40° |
| 2026-05-05 20:01 | 41.99090 | -87.77603 | 8617 ft | 311 kts | 47° |
| 2026-05-05 20:02 | 42.00443 | -87.75270 | 9434 ft | 322 kts | 52° |
| 2026-05-05 20:02 | 42.01720 | -87.72755 | 9860 ft | 327 kts | 56° |
| 2026-05-05 20:02 | 42.02923 | -87.70137 | 9996 ft | 332 kts | 58° |
| 2026-05-05 20:02 | 42.04085 | -87.67430 | 9991 ft | 332 kts | 59° |
| 2026-05-05 20:03 | 42.05199 | -87.64721 | 9992 ft | 330 kts | 60° |
| 2026-05-05 20:03 | 42.06292 | -87.61996 | 10057 ft | 338 kts | 60° |
| 2026-05-05 20:03 | 42.07431 | -87.59121 | 10479 ft | 355 kts | 60° |
| 2026-05-05 20:03 | 42.08600 | -87.56148 | 11270 ft | 361 kts | 60° |
| 2026-05-05 20:04 | 42.09776 | -87.53142 | 12154 ft | 365 kts | 60° |
| 2026-05-05 20:04 | 42.10963 | -87.50099 | 13027 ft | 369 kts | 60° |
| 2026-05-05 20:04 | 42.12167 | -87.47009 | 13853 ft | 375 kts | 59° |
| 2026-05-05 20:04 | 42.13386 | -87.43878 | 14559 ft | 381 kts | 59° |
| 2026-05-05 20:05 | 42.14628 | -87.40683 | 15280 ft | 388 kts | 59° |
| 2026-05-05 20:05 | 42.15887 | -87.37440 | 15997 ft | 393 kts | 59° |
| 2026-05-05 20:05 | 42.17163 | -87.34149 | 16726 ft | 399 kts | 59° |
| 2026-05-05 20:05 | 42.18458 | -87.30807 | 17449 ft | 405 kts | 59° |
| 2026-05-05 20:06 | 42.19756 | -87.27451 | 18160 ft | 410 kts | 60° |
| 2026-05-05 20:06 | 42.21087 | -87.24005 | 18777 ft | 416 kts | 60° |
| 2026-05-05 20:06 | 42.22431 | -87.20520 | 19388 ft | 421 kts | 60° |
| 2026-05-05 20:06 | 42.23791 | -87.16992 | 20007 ft | 426 kts | 60° |
| 2026-05-05 20:07 | 42.25169 | -87.13414 | 20611 ft | 432 kts | 60° |
| 2026-05-05 20:07 | 42.26544 | -87.09787 | 21196 ft | 438 kts | 64° |
| 2026-05-05 20:07 | 42.27604 | -87.05890 | 21771 ft | 445 kts | 75° |
| 2026-05-05 20:07 | 42.28203 | -87.01776 | 22352 ft | 449 kts | 86° |
| 2026-05-05 20:08 | 42.28423 | -86.97550 | 22949 ft | 452 kts | 89° |
| 2026-05-05 20:08 | 42.28568 | -86.93287 | 23513 ft | 457 kts | 90° |
| 2026-05-05 20:08 | 42.28696 | -86.88980 | 23995 ft | 461 kts | 90° |
| 2026-05-05 20:08 | 42.28829 | -86.84691 | 24493 ft | 464 kts | 90° |
| 2026-05-05 20:09 | 42.28979 | -86.80322 | 24994 ft | 468 kts | 90° |
| 2026-05-05 20:09 | 42.29142 | -86.75906 | 25465 ft | 472 kts | 90° |
| 2026-05-05 20:09 | 42.29314 | -86.71450 | 25931 ft | 476 kts | 90° |
| 2026-05-05 20:09 | 42.29491 | -86.66961 | 26390 ft | 480 kts | 89° |
| 2026-05-05 20:10 | 42.29668 | -86.62448 | 26840 ft | 484 kts | 89° |
| 2026-05-05 20:10 | 42.29846 | -86.57882 | 27278 ft | 488 kts | 89° |
| 2026-05-05 20:10 | 42.30022 | -86.53291 | 27722 ft | 491 kts | 89° |
| 2026-05-05 20:10 | 42.30198 | -86.48660 | 28160 ft | 494 kts | 89° |
| 2026-05-05 20:11 | 42.30372 | -86.44001 | 28588 ft | 498 kts | 89° |
| 2026-05-05 20:11 | 42.30542 | -86.39369 | 29004 ft | 501 kts | 89° |
| 2026-05-05 20:11 | 42.30714 | -86.34649 | 29415 ft | 505 kts | 89° |
| 2026-05-05 20:11 | 42.30888 | -86.29832 | 29815 ft | 508 kts | 89° |
| 2026-05-05 20:12 | 42.31057 | -86.25109 | 30159 ft | 512 kts | 89° |
| 2026-05-05 20:12 | 42.31227 | -86.20296 | 30498 ft | 514 kts | 89° |
| 2026-05-05 20:12 | 42.31396 | -86.15453 | 30837 ft | 517 kts | 89° |
| 2026-05-05 20:12 | 42.31564 | -86.10593 | 31163 ft | 519 kts | 89° |
| 2026-05-05 20:13 | 42.31652 | -86.05713 | 31476 ft | 521 kts | 91° |
| 2026-05-05 20:13 | 42.31627 | -86.00805 | 31797 ft | 523 kts | 92° |
| 2026-05-05 20:13 | 42.31546 | -85.95890 | 32193 ft | 523 kts | 93° |
| 2026-05-05 20:13 | 42.31449 | -85.90985 | 32627 ft | 522 kts | 93° |
| 2026-05-05 20:14 | 42.31355 | -85.86075 | 33045 ft | 522 kts | 92° |
| 2026-05-05 20:14 | 42.31271 | -85.81171 | 33406 ft | 522 kts | 92° |
| 2026-05-05 20:14 | 42.31197 | -85.76258 | 33758 ft | 523 kts | 92° |
| 2026-05-05 20:14 | 42.31128 | -85.71348 | 34079 ft | 524 kts | 92° |
| 2026-05-05 20:15 | 42.31061 | -85.66407 | 34375 ft | 524 kts | 91° |
| 2026-05-05 20:15 | 42.30993 | -85.61477 | 34667 ft | 525 kts | 91° |
| 2026-05-05 20:15 | 42.30923 | -85.56607 | 34944 ft | 525 kts | 91° |
| 2026-05-05 20:15 | 42.30848 | -85.51611 | 35248 ft | 526 kts | 91° |
| 2026-05-05 20:16 | 42.30772 | -85.46726 | 35531 ft | 526 kts | 91° |
| 2026-05-05 20:16 | 42.30693 | -85.41784 | 35807 ft | 527 kts | 91° |
| 2026-05-05 20:16 | 42.30610 | -85.36829 | 36096 ft | 526 kts | 91° |
| 2026-05-05 20:16 | 42.30526 | -85.31893 | 36438 ft | 525 kts | 91° |
| 2026-05-05 20:17 | 42.30441 | -85.26969 | 36758 ft | 524 kts | 91° |
| 2026-05-05 20:17 | 42.30352 | -85.22021 | 36886 ft | 528 kts | 91° |
| 2026-05-05 20:17 | 42.30293 | -85.18715 | 36860 ft | 531 kts | 91° |
| 2026-05-05 20:18 | 42.30075 | -85.07119 | 36856 ft | 527 kts | 91° |
| 2026-05-05 20:18 | 42.29909 | -84.98945 | 36862 ft | 521 kts | 91° |
| 2026-05-05 20:19 | 42.29676 | -84.89144 | 36878 ft | 521 kts | 91° |
| 2026-05-05 20:19 | 42.29433 | -84.79351 | 36871 ft | 522 kts | 91° |
| 2026-05-05 20:20 | 42.29186 | -84.69546 | 36861 ft | 522 kts | 92° |
| 2026-05-05 20:20 | 42.28932 | -84.59745 | 36859 ft | 522 kts | 92° |
| 2026-05-05 20:21 | 42.28681 | -84.49938 | 36859 ft | 522 kts | 90° |
| 2026-05-05 20:21 | 42.29452 | -84.40233 | 36874 ft | 518 kts | 76° |
| 2026-05-05 20:22 | 42.30893 | -84.30756 | 36863 ft | 518 kts | 75° |
| 2026-05-05 20:22 | 42.32330 | -84.21209 | 36853 ft | 518 kts | 76° |
| 2026-05-05 20:23 | 42.33694 | -84.11652 | 36858 ft | 518 kts | 76° |
| 2026-05-05 20:23 | 42.35029 | -84.02080 | 36856 ft | 517 kts | 76° |
| 2026-05-05 20:24 | 42.36354 | -83.92523 | 36852 ft | 517 kts | 76° |
| 2026-05-05 20:24 | 42.37667 | -83.83032 | 36843 ft | 516 kts | 77° |
| 2026-05-05 20:25 | 42.38979 | -83.73490 | 36850 ft | 515 kts | 77° |
| 2026-05-05 20:25 | 42.40282 | -83.63959 | 36850 ft | 515 kts | 77° |
| 2026-05-05 20:26 | 42.41218 | -83.54338 | 36871 ft | 516 kts | 85° |
| 2026-05-05 20:26 | 42.41547 | -83.44646 | 36870 ft | 516 kts | 87° |
| 2026-05-05 20:27 | 42.41819 | -83.34992 | 36846 ft | 517 kts | 87° |
| 2026-05-05 20:27 | 42.42126 | -83.25268 | 36832 ft | 518 kts | 86° |
| 2026-05-05 20:28 | 42.42456 | -83.15533 | 36830 ft | 517 kts | 86° |
| 2026-05-05 20:28 | 42.42784 | -83.05826 | 36840 ft | 516 kts | 86° |
| 2026-05-05 20:29 | 42.43101 | -82.96146 | 36851 ft | 514 kts | 87° |
| 2026-05-05 20:29 | 42.43408 | -82.86469 | 36835 ft | 514 kts | 87° |
| 2026-05-05 20:30 | 42.43705 | -82.76809 | 36843 ft | 513 kts | 87° |
| 2026-05-05 20:30 | 42.43993 | -82.67161 | 36828 ft | 512 kts | 87° |
| 2026-05-05 20:31 | 42.44274 | -82.57524 | 36833 ft | 511 kts | 87° |
| 2026-05-05 20:31 | 42.44544 | -82.47968 | 36838 ft | 511 kts | 88° |
| 2026-05-05 20:32 | 42.44808 | -82.38355 | 36842 ft | 510 kts | 88° |
| 2026-05-05 20:32 | 42.45063 | -82.28756 | 36845 ft | 510 kts | 88° |
| 2026-05-05 20:33 | 42.45310 | -82.19153 | 36842 ft | 510 kts | 88° |
| 2026-05-05 20:33 | 42.45550 | -82.09545 | 36852 ft | 510 kts | 88° |
| 2026-05-05 20:34 | 42.45780 | -81.99999 | 36837 ft | 510 kts | 88° |
| 2026-05-05 20:34 | 42.46003 | -81.90401 | 36840 ft | 510 kts | 88° |
| 2026-05-05 20:35 | 42.46218 | -81.80809 | 36841 ft | 509 kts | 89° |
| 2026-05-05 20:35 | 42.46425 | -81.71219 | 36836 ft | 509 kts | 89° |
| 2026-05-05 20:36 | 42.46623 | -81.61643 | 36841 ft | 508 kts | 89° |
| 2026-05-05 20:36 | 42.46814 | -81.52067 | 36833 ft | 508 kts | 89° |
| 2026-05-05 20:37 | 42.46997 | -81.42504 | 36830 ft | 507 kts | 89° |
| 2026-05-05 20:37 | 42.47171 | -81.32950 | 36845 ft | 507 kts | 89° |
| 2026-05-05 20:38 | 42.47337 | -81.23411 | 36824 ft | 507 kts | 89° |
| 2026-05-05 20:38 | 42.47495 | -81.13936 | 36831 ft | 506 kts | 89° |
| 2026-05-05 20:39 | 42.47645 | -81.04398 | 36833 ft | 505 kts | 89° |
| 2026-05-05 20:39 | 42.47787 | -80.94876 | 36832 ft | 505 kts | 90° |
| 2026-05-05 20:40 | 42.47921 | -80.85354 | 36829 ft | 505 kts | 90° |
| 2026-05-05 20:40 | 42.48048 | -80.75835 | 36830 ft | 505 kts | 90° |
| 2026-05-05 20:41 | 42.48166 | -80.66368 | 36831 ft | 506 kts | 90° |
| 2026-05-05 20:41 | 42.48276 | -80.56834 | 36842 ft | 506 kts | 90° |
| 2026-05-05 20:42 | 42.48380 | -80.47279 | 36842 ft | 508 kts | 90° |
| 2026-05-05 20:42 | 42.48475 | -80.37674 | 36826 ft | 510 kts | 90° |
| 2026-05-05 20:43 | 42.48563 | -80.28063 | 36840 ft | 510 kts | 90° |
| 2026-05-05 20:43 | 42.48643 | -80.18468 | 36836 ft | 509 kts | 90° |
| 2026-05-05 20:44 | 42.48714 | -80.08892 | 36836 ft | 508 kts | 90° |
| 2026-05-05 20:44 | 42.48777 | -79.99388 | 36845 ft | 507 kts | 90° |
| 2026-05-05 20:45 | 42.48857 | -79.85081 | 36844 ft | 505 kts | 90° |
| 2026-05-05 20:45 | 42.48901 | -79.75561 | 36845 ft | 505 kts | 90° |
| 2026-05-05 20:46 | 42.48936 | -79.66046 | 36841 ft | 505 kts | 90° |
| 2026-05-05 20:46 | 42.48964 | -79.56533 | 36845 ft | 505 kts | 90° |
| 2026-05-05 20:47 | 42.48983 | -79.47013 | 36852 ft | 505 kts | 90° |
| 2026-05-05 20:47 | 42.48996 | -79.37477 | 36838 ft | 507 kts | 91° |
| 2026-05-05 20:48 | 42.49004 | -79.27906 | 36842 ft | 507 kts | 90° |
| 2026-05-05 20:48 | 42.49466 | -79.18368 | 36845 ft | 507 kts | 84° |
| 2026-05-05 20:49 | 42.50205 | -79.08927 | 36836 ft | 507 kts | 83° |
| 2026-05-05 20:49 | 42.50937 | -78.99430 | 36837 ft | 506 kts | 84° |
| 2026-05-05 20:50 | 42.51609 | -78.89930 | 36826 ft | 506 kts | 84° |
| 2026-05-05 20:50 | 42.52248 | -78.80430 | 36816 ft | 506 kts | 84° |
| 2026-05-05 20:51 | 42.52875 | -78.70921 | 36794 ft | 506 kts | 84° |
| 2026-05-05 20:51 | 42.53496 | -78.61436 | 36809 ft | 503 kts | 84° |
| 2026-05-05 20:52 | 42.54103 | -78.52060 | 36796 ft | 501 kts | 84° |
| 2026-05-05 20:52 | 42.54704 | -78.42670 | 36813 ft | 499 kts | 84° |
| 2026-05-05 20:53 | 42.55299 | -78.33270 | 36811 ft | 498 kts | 84° |
| 2026-05-05 20:53 | 42.55883 | -78.23900 | 36809 ft | 498 kts | 84° |
| 2026-05-05 20:54 | 42.56459 | -78.14530 | 36802 ft | 499 kts | 84° |
| 2026-05-05 20:54 | 42.57030 | -78.05133 | 36798 ft | 500 kts | 84° |
| 2026-05-05 20:55 | 42.57593 | -77.95725 | 36793 ft | 501 kts | 84° |
| 2026-05-05 20:55 | 42.58146 | -77.86358 | 36802 ft | 502 kts | 84° |
| 2026-05-05 20:56 | 42.58697 | -77.76901 | 36797 ft | 502 kts | 84° |
| 2026-05-05 20:56 | 42.59239 | -77.67442 | 36809 ft | 503 kts | 84° |
| 2026-05-05 20:57 | 42.59775 | -77.57976 | 36797 ft | 503 kts | 84° |
| 2026-05-05 20:57 | 42.60303 | -77.48501 | 36791 ft | 503 kts | 84° |
| 2026-05-05 20:58 | 42.60821 | -77.39044 | 36796 ft | 502 kts | 84° |
| 2026-05-05 20:58 | 42.61332 | -77.29596 | 36783 ft | 502 kts | 84° |
| 2026-05-05 20:59 | 42.61832 | -77.20202 | 36771 ft | 501 kts | 85° |
| 2026-05-05 20:59 | 42.62326 | -77.10769 | 36770 ft | 500 kts | 85° |
| 2026-05-05 21:00 | 42.62811 | -77.01363 | 36781 ft | 499 kts | 85° |
| 2026-05-05 21:00 | 42.63289 | -76.91947 | 36776 ft | 500 kts | 85° |
| 2026-05-05 21:01 | 42.63759 | -76.82529 | 36789 ft | 500 kts | 85° |
| 2026-05-05 21:01 | 42.64221 | -76.73112 | 36770 ft | 499 kts | 85° |
| 2026-05-05 21:02 | 42.64674 | -76.63730 | 36790 ft | 497 kts | 85° |
| 2026-05-05 21:02 | 42.65119 | -76.54341 | 36804 ft | 498 kts | 85° |
| 2026-05-05 21:03 | 42.65558 | -76.44946 | 36804 ft | 498 kts | 85° |
| 2026-05-05 21:03 | 42.65987 | -76.35570 | 36806 ft | 496 kts | 85° |
| 2026-05-05 21:04 | 42.66404 | -76.26282 | 36785 ft | 495 kts | 85° |
| 2026-05-05 21:06 | 42.66432 | -76.25667 | 36789 ft | 495 kts | 85° |
| 2026-05-05 21:06 | 42.66540 | -76.23223 | 36787 ft | 494 kts | 85° |
| 2026-05-05 21:07 | 42.66949 | -76.13905 | 36775 ft | 493 kts | 85° |
| 2026-05-05 21:07 | 42.67350 | -76.04610 | 36771 ft | 492 kts | 85° |
| 2026-05-05 21:08 | 42.67743 | -75.95314 | 36768 ft | 491 kts | 85° |
| 2026-05-05 21:08 | 42.68125 | -75.86099 | 36778 ft | 490 kts | 85° |
| 2026-05-05 21:09 | 42.68500 | -75.76851 | 36785 ft | 490 kts | 85° |
| 2026-05-05 21:09 | 42.68869 | -75.67602 | 36790 ft | 489 kts | 85° |
| 2026-05-05 21:10 | 42.69229 | -75.58367 | 36796 ft | 489 kts | 85° |
| 2026-05-05 21:10 | 42.69582 | -75.49148 | 36803 ft | 488 kts | 85° |
| 2026-05-05 21:11 | 42.69926 | -75.39931 | 36791 ft | 488 kts | 85° |
| 2026-05-05 21:11 | 42.70264 | -75.30717 | 36793 ft | 487 kts | 85° |
| 2026-05-05 21:12 | 42.70591 | -75.21581 | 36797 ft | 486 kts | 85° |
| 2026-05-05 21:12 | 42.70912 | -75.12400 | 36800 ft | 486 kts | 85° |
| 2026-05-05 21:13 | 42.71227 | -75.03200 | 36777 ft | 486 kts | 85° |
| 2026-05-05 21:13 | 42.71534 | -74.94020 | 36777 ft | 485 kts | 86° |
| 2026-05-05 21:14 | 42.71833 | -74.84854 | 36777 ft | 484 kts | 86° |
| 2026-05-05 21:14 | 42.72123 | -74.75703 | 36769 ft | 484 kts | 86° |
| 2026-05-05 21:15 | 42.72406 | -74.66568 | 36774 ft | 482 kts | 86° |
| 2026-05-05 21:15 | 42.72681 | -74.57464 | 36771 ft | 482 kts | 86° |
| 2026-05-05 21:16 | 42.72947 | -74.48427 | 36763 ft | 481 kts | 86° |
| 2026-05-05 21:16 | 42.73207 | -74.39341 | 36757 ft | 480 kts | 87° |
| 2026-05-05 21:17 | 42.73459 | -74.30287 | 36756 ft | 478 kts | 87° |
| 2026-05-05 21:17 | 42.73704 | -74.21254 | 36742 ft | 477 kts | 87° |
| 2026-05-05 21:18 | 42.73941 | -74.12230 | 36730 ft | 476 kts | 87° |
| 2026-05-05 21:18 | 42.74168 | -74.03302 | 36739 ft | 475 kts | 87° |
| 2026-05-05 21:19 | 42.74390 | -73.94320 | 36575 ft | 477 kts | 87° |
| 2026-05-05 21:19 | 42.74500 | -73.89796 | 36097 ft | 477 kts | 87° |
| 2026-05-05 21:19 | 42.74607 | -73.85293 | 35620 ft | 475 kts | 87° |
| 2026-05-05 21:20 | 42.74711 | -73.80819 | 35225 ft | 471 kts | 87° |
| 2026-05-05 21:20 | 42.74751 | -73.76378 | 34803 ft | 469 kts | 89° |
| 2026-05-05 21:20 | 42.74721 | -73.71951 | 34384 ft | 467 kts | 89° |
| 2026-05-05 21:20 | 42.74664 | -73.67548 | 33982 ft | 464 kts | 90° |
| 2026-05-05 21:21 | 42.74605 | -73.63167 | 33565 ft | 462 kts | 89° |
| 2026-05-05 21:21 | 42.74553 | -73.58811 | 33122 ft | 459 kts | 89° |
| 2026-05-05 21:21 | 42.74509 | -73.54475 | 32716 ft | 456 kts | 89° |
| 2026-05-05 21:21 | 42.74470 | -73.50173 | 32327 ft | 453 kts | 89° |
| 2026-05-05 21:22 | 42.74432 | -73.45905 | 31948 ft | 450 kts | 90° |
| 2026-05-05 21:22 | 42.74395 | -73.41676 | 31586 ft | 446 kts | 90° |
| 2026-05-05 21:22 | 42.74356 | -73.37471 | 31200 ft | 443 kts | 90° |
| 2026-05-05 21:22 | 42.74316 | -73.33301 | 30836 ft | 439 kts | 90° |
| 2026-05-05 21:23 | 42.74274 | -73.29213 | 30471 ft | 436 kts | 90° |
| 2026-05-05 21:23 | 42.74231 | -73.25103 | 30109 ft | 433 kts | 90° |
| 2026-05-05 21:23 | 42.74187 | -73.21019 | 29741 ft | 430 kts | 91° |
| 2026-05-05 21:23 | 42.74142 | -73.16973 | 29307 ft | 427 kts | 91° |
| 2026-05-05 21:24 | 42.74095 | -73.12957 | 28914 ft | 423 kts | 91° |
| 2026-05-05 21:24 | 42.73937 | -73.08999 | 28655 ft | 415 kts | 97° |
| 2026-05-05 21:24 | 42.73544 | -73.05144 | 28348 ft | 409 kts | 100° |
| 2026-05-05 21:24 | 42.73059 | -73.01344 | 27974 ft | 405 kts | 101° |
| 2026-05-05 21:25 | 42.72563 | -72.97582 | 27592 ft | 402 kts | 101° |
| 2026-05-05 21:25 | 42.72108 | -72.94039 | 27228 ft | 400 kts | 101° |
| 2026-05-05 21:25 | 42.71648 | -72.90314 | 26850 ft | 398 kts | 101° |
| 2026-05-05 21:25 | 42.71205 | -72.86612 | 26471 ft | 396 kts | 101° |
| 2026-05-05 21:26 | 42.70777 | -72.82979 | 26103 ft | 393 kts | 101° |
| 2026-05-05 21:26 | 42.70347 | -72.79315 | 25731 ft | 391 kts | 101° |
| 2026-05-05 21:26 | 42.69920 | -72.75666 | 25372 ft | 390 kts | 101° |
| 2026-05-05 21:26 | 42.69493 | -72.72036 | 24995 ft | 388 kts | 101° |
| 2026-05-05 21:27 | 42.69065 | -72.68410 | 24626 ft | 387 kts | 101° |
| 2026-05-05 21:27 | 42.68638 | -72.64800 | 24234 ft | 387 kts | 101° |
| 2026-05-05 21:27 | 42.68208 | -72.61200 | 23870 ft | 385 kts | 101° |
| 2026-05-05 21:27 | 42.67773 | -72.57606 | 23484 ft | 385 kts | 102° |
| 2026-05-05 21:28 | 42.67338 | -72.54028 | 23073 ft | 384 kts | 102° |
| 2026-05-05 21:28 | 42.66903 | -72.50462 | 22675 ft | 382 kts | 102° |
| 2026-05-05 21:28 | 42.66469 | -72.46915 | 22293 ft | 380 kts | 102° |
| 2026-05-05 21:28 | 42.66037 | -72.43379 | 21924 ft | 378 kts | 102° |
| 2026-05-05 21:29 | 42.65607 | -72.39870 | 21543 ft | 375 kts | 102° |
| 2026-05-05 21:29 | 42.65180 | -72.36396 | 21210 ft | 372 kts | 102° |
| 2026-05-05 21:29 | 42.64755 | -72.32939 | 20874 ft | 369 kts | 102° |
| 2026-05-05 21:29 | 42.64337 | -72.29497 | 20804 ft | 370 kts | 102° |
| 2026-05-05 21:30 | 42.63940 | -72.26084 | 20781 ft | 361 kts | 101° |
| 2026-05-05 21:30 | 42.63567 | -72.22823 | 20770 ft | 347 kts | 101° |
| 2026-05-05 21:30 | 42.63202 | -72.19642 | 20768 ft | 335 kts | 102° |
| 2026-05-05 21:30 | 42.62842 | -72.16536 | 20768 ft | 322 kts | 102° |
| 2026-05-05 21:31 | 42.62502 | -72.13618 | 20760 ft | 310 kts | 102° |
| 2026-05-05 21:31 | 42.62170 | -72.10784 | 20766 ft | 300 kts | 102° |
| 2026-05-05 21:31 | 42.61845 | -72.08021 | 20770 ft | 296 kts | 102° |
| 2026-05-05 21:31 | 42.61511 | -72.05210 | 20332 ft | 307 kts | 102° |
| 2026-05-05 21:32 | 42.61156 | -72.02254 | 19536 ft | 327 kts | 102° |
| 2026-05-05 21:32 | 42.60770 | -71.99084 | 18588 ft | 351 kts | 102° |
| 2026-05-05 21:32 | 42.60367 | -71.95791 | 18158 ft | 354 kts | 102° |
| 2026-05-05 21:32 | 42.59973 | -71.92508 | 17843 ft | 351 kts | 102° |
| 2026-05-05 21:33 | 42.59582 | -71.89251 | 17486 ft | 348 kts | 102° |
| 2026-05-05 21:33 | 42.59196 | -71.86011 | 17090 ft | 347 kts | 102° |
| 2026-05-05 21:33 | 42.58803 | -71.82786 | 16809 ft | 344 kts | 102° |
| 2026-05-05 21:33 | 42.58421 | -71.79644 | 16787 ft | 331 kts | 102° |
| 2026-05-05 21:34 | 42.58057 | -71.76617 | 16763 ft | 319 kts | 102° |
| 2026-05-05 21:34 | 42.57714 | -71.73706 | 16766 ft | 306 kts | 102° |
| 2026-05-05 21:34 | 42.57395 | -71.70906 | 16762 ft | 294 kts | 102° |
| 2026-05-05 21:34 | 42.57089 | -71.68226 | 16766 ft | 283 kts | 102° |
| 2026-05-05 21:35 | 42.56798 | -71.65650 | 16769 ft | 277 kts | 102° |
| 2026-05-05 21:35 | 42.56501 | -71.63042 | 16790 ft | 284 kts | 102° |
| 2026-05-05 21:35 | 42.56196 | -71.60383 | 16684 ft | 287 kts | 102° |
| 2026-05-05 21:35 | 42.55887 | -71.57706 | 16524 ft | 282 kts | 102° |
| 2026-05-05 21:36 | 42.55595 | -71.55140 | 16441 ft | 268 kts | 102° |
| 2026-05-05 21:36 | 42.55322 | -71.52696 | 16316 ft | 257 kts | 102° |
| 2026-05-05 21:36 | 42.55057 | -71.50312 | 15997 ft | 255 kts | 102° |
| 2026-05-05 21:36 | 42.54792 | -71.47935 | 15629 ft | 256 kts | 102° |
| 2026-05-05 21:37 | 42.54526 | -71.45552 | 15297 ft | 255 kts | 102° |
| 2026-05-05 21:37 | 42.54260 | -71.43184 | 14955 ft | 254 kts | 102° |
| 2026-05-05 21:37 | 42.53993 | -71.40825 | 14612 ft | 252 kts | 102° |
| 2026-05-05 21:37 | 42.53740 | -71.38548 | 14468 ft | 236 kts | 102° |
| 2026-05-05 21:38 | 42.53410 | -71.36412 | 14083 ft | 228 kts | 120° |
| 2026-05-05 21:38 | 42.52694 | -71.34516 | 13640 ft | 226 kts | 124° |
| 2026-05-05 21:38 | 42.51980 | -71.32637 | 13200 ft | 226 kts | 123° |
| 2026-05-05 21:38 | 42.51286 | -71.30734 | 12777 ft | 225 kts | 123° |
| 2026-05-05 21:39 | 42.50611 | -71.28826 | 12365 ft | 223 kts | 122° |
| 2026-05-05 21:39 | 42.49953 | -71.26926 | 11965 ft | 222 kts | 122° |
| 2026-05-05 21:39 | 42.49306 | -71.25029 | 11549 ft | 221 kts | 122° |
| 2026-05-05 21:39 | 42.48667 | -71.23138 | 11163 ft | 220 kts | 122° |
| 2026-05-05 21:40 | 42.48034 | -71.21258 | 10775 ft | 219 kts | 122° |
| 2026-05-05 21:40 | 42.47403 | -71.19385 | 10405 ft | 218 kts | 122° |
| 2026-05-05 21:40 | 42.46778 | -71.17522 | 10065 ft | 216 kts | 122° |
| 2026-05-05 21:40 | 42.46381 | -71.15558 | 9784 ft | 223 kts | 88° |
| 2026-05-05 21:41 | 42.46826 | -71.13528 | 9822 ft | 229 kts | 63° |
| 2026-05-05 21:41 | 42.47524 | -71.11595 | 9796 ft | 227 kts | 61° |
| 2026-05-05 21:41 | 42.48234 | -71.09711 | 9656 ft | 223 kts | 60° |
| 2026-05-05 21:41 | 42.48938 | -71.07846 | 9244 ft | 224 kts | 61° |
| 2026-05-05 21:42 | 42.49847 | -71.06163 | 8736 ft | 220 kts | 28° |
| 2026-05-05 21:42 | 42.51172 | -71.05262 | 8357 ft | 208 kts | 11° |
| 2026-05-05 21:42 | 42.52526 | -71.04603 | 7974 ft | 206 kts | 9° |
| 2026-05-05 21:42 | 42.53849 | -71.03968 | 7725 ft | 194 kts | 9° |
| 2026-05-05 21:43 | 42.55093 | -71.03363 | 7370 ft | 188 kts | 9° |
| 2026-05-05 21:43 | 42.56321 | -71.02765 | 6959 ft | 186 kts | 8° |
| 2026-05-05 21:43 | 42.57530 | -71.02174 | 6532 ft | 185 kts | 9° |
| 2026-05-05 21:43 | 42.58746 | -71.01634 | 6075 ft | 183 kts | 2° |
| 2026-05-05 21:44 | 42.59976 | -71.01236 | 5605 ft | 184 kts | 1° |
| 2026-05-05 21:44 | 42.61236 | -71.00850 | 5220 ft | 182 kts | 2° |
| 2026-05-05 21:44 | 42.62422 | -71.00192 | 4941 ft | 189 kts | 28° |
| 2026-05-05 21:44 | 42.63500 | -70.99220 | 4808 ft | 184 kts | 26° |
| 2026-05-05 21:45 | 42.64581 | -70.98406 | 4629 ft | 177 kts | 20° |
| 2026-05-05 21:45 | 42.65671 | -70.97577 | 4557 ft | 181 kts | 23° |
| 2026-05-05 21:45 | 42.66765 | -70.96712 | 4476 ft | 181 kts | 22° |
| 2026-05-05 21:45 | 42.67845 | -70.95854 | 4441 ft | 178 kts | 23° |
| 2026-05-05 21:46 | 42.68817 | -70.94819 | 4373 ft | 184 kts | 58° |
| 2026-05-05 21:46 | 42.68986 | -70.93199 | 4380 ft | 168 kts | 122° |
| 2026-05-05 21:46 | 42.68297 | -70.92199 | 4381 ft | 135 kts | 169° |
| 2026-05-05 21:46 | 42.67451 | -70.91688 | 4280 ft | 126 kts | 182° |
| 2026-05-05 21:47 | 42.66640 | -70.91682 | 4206 ft | 114 kts | 195° |
| 2026-05-05 21:47 | 42.65845 | -70.91718 | 4125 ft | 113 kts | 195° |
| 2026-05-05 21:47 | 42.65060 | -70.91755 | 4050 ft | 113 kts | 196° |
| 2026-05-05 21:47 | 42.64273 | -70.91794 | 3964 ft | 114 kts | 195° |
| 2026-05-05 21:48 | 42.63475 | -70.91837 | 3860 ft | 115 kts | 195° |
| 2026-05-05 21:48 | 42.62656 | -70.91883 | 3818 ft | 117 kts | 195° |
| 2026-05-05 21:48 | 42.61848 | -70.91929 | 3820 ft | 122 kts | 195° |
| 2026-05-05 21:48 | 42.60964 | -70.91987 | 3813 ft | 130 kts | 194° |
| 2026-05-05 21:49 | 42.60053 | -70.92041 | 3814 ft | 131 kts | 194° |
| 2026-05-05 21:49 | 42.59143 | -70.92095 | 3806 ft | 130 kts | 194° |
| 2026-05-05 21:49 | 42.58238 | -70.92152 | 3804 ft | 130 kts | 194° |
| 2026-05-05 21:49 | 42.57330 | -70.92209 | 3809 ft | 131 kts | 194° |
| 2026-05-05 21:50 | 42.56417 | -70.92258 | 3705 ft | 131 kts | 194° |
| 2026-05-05 21:50 | 42.55519 | -70.92287 | 3552 ft | 129 kts | 194° |
| 2026-05-05 21:50 | 42.54635 | -70.92335 | 3400 ft | 121 kts | 196° |
| 2026-05-05 21:50 | 42.53837 | -70.92385 | 3307 ft | 108 kts | 198° |
| 2026-05-05 21:51 | 42.53115 | -70.92528 | 3316 ft | 105 kts | 205° |
| 2026-05-05 21:51 | 42.52432 | -70.92829 | 3304 ft | 103 kts | 209° |
| 2026-05-05 21:51 | 42.51755 | -70.93146 | 3314 ft | 103 kts | 209° |
| 2026-05-05 21:51 | 42.51098 | -70.93452 | 3276 ft | 89 kts | 210° |
| 2026-05-05 21:52 | 42.50107 | -70.93905 | 2554 ft | 96 kts | 209° |
| 2026-05-05 21:52 | 42.49469 | -70.94231 | 2179 ft | 99 kts | 210° |
| 2026-05-05 21:52 | 42.48824 | -70.94579 | 1940 ft | 99 kts | 209° |
| 2026-05-05 21:53 | 42.48188 | -70.94946 | 1636 ft | 100 kts | 208° |
| 2026-05-05 21:53 | 42.47553 | -70.95311 | 1440 ft | 95 kts | 202° |
| 2026-05-05 21:53 | 42.46895 | -70.95579 | 1505 ft | 102 kts | 200° |
| 2026-05-05 21:53 | 42.46191 | -70.95853 | 1513 ft | 109 kts | 202° |
| 2026-05-05 21:54 | 42.45470 | -70.96173 | 1498 ft | 110 kts | 203° |
| 2026-05-05 21:54 | 42.44753 | -70.96510 | 1356 ft | 107 kts | 203° |
| 2026-05-05 21:54 | 42.44055 | -70.96843 | 1226 ft | 107 kts | 205° |
| 2026-05-05 21:54 | 42.43331 | -70.97197 | 1083 ft | 113 kts | 203° |
| 2026-05-05 21:55 | 42.42604 | -70.97547 | 935 ft | 112 kts | 201° |
| 2026-05-05 21:55 | 42.41872 | -70.97905 | 824 ft | 119 kts | 201° |
| 2026-05-05 21:55 | 42.41010 | -70.98321 | 702 ft | 132 kts | 200° |
| 2026-05-05 21:55 | 42.40196 | -70.98714 | 523 ft | 121 kts | 200° |
| 2026-05-05 21:56 | 42.39430 | -70.99084 | 456 ft | 113 kts | 200° |
| 2026-05-05 21:56 | 42.38719 | -70.99431 | 346 ft | 105 kts | 202° |
| 2026-05-05 21:56 | 42.38038 | -70.99760 | 184 ft | 102 kts | 201° |
| 2026-05-05 21:56 | 42.37383 | -71.00074 | 59 ft | 97 kts | 200° |
| 2026-05-05 21:57 | 42.36785 | -71.00364 | 31 ft | 85 kts | 200° |
| 2026-05-05 21:57 | 42.36291 | -71.00605 | 27 ft | 58 kts | 201° |
| 2026-05-05 21:57 | 42.36069 | -71.00718 | 22 ft | 19 kts | 211° |
| 2026-05-05 21:57 | 42.35970 | -71.00825 | 22 ft | 18 kts | 231° |
| 2026-05-05 21:58 | 42.35920 | -71.00905 | 19 ft | 0 kts | 228° |
| 2026-05-05 21:58 | 42.35893 | -71.00943 | 20 ft | 9 kts | 225° |
| 2026-05-05 21:58 | 42.35855 | -71.01009 | 23 ft | 10 kts | 239° |
| 2026-05-05 21:59 | 42.35836 | -71.01131 | 22 ft | 18 kts | 275° |
| 2026-05-05 21:59 | 42.35844 | -71.01192 | 22 ft | 1 kts | 279° |
| 2026-05-05 21:59 | 42.35844 | -71.01193 | 22 ft | 0 kts | 279° |
| 2026-05-05 22:00 | 42.35844 | -71.01219 | 22 ft | 11 kts | 270° |
| 2026-05-05 22:00 | 42.35852 | -71.01308 | 23 ft | 0 kts | 279° |
| 2026-05-05 22:00 | 42.35853 | -71.01314 | 23 ft | 5 kts | 278° |
| 2026-05-05 22:00 | 42.35871 | -71.01461 | 26 ft | 20 kts | 290° |
| 2026-05-05 22:01 | 42.35936 | -71.01522 | 29 ft | 14 kts | 8° |
| 2026-05-05 22:01 | 42.36035 | -71.01479 | 28 ft | 16 kts | 20° |
| 2026-05-05 22:01 | 42.36134 | -71.01431 | 26 ft | 15 kts | 21° |
| 2026-05-05 22:01 | 42.36241 | -71.01378 | 22 ft | 18 kts | 19° |
| 2026-05-05 22:02 | 42.36315 | -71.01345 | 22 ft | 0 kts | 18° |
| 2026-05-05 22:02 | 42.36324 | -71.01345 | 22 ft | 6 kts | 358° |
| 2026-05-05 22:02 | 42.36365 | -71.01387 | 21 ft | 9 kts | 304° |
| 2026-05-05 22:02 | 42.36389 | -71.01464 | 21 ft | 9 kts | 297° |
| 2026-05-05 22:03 | 42.36419 | -71.01537 | 21 ft | 9 kts | 298° |
| 2026-05-05 22:03 | 42.36443 | -71.01610 | 21 ft | 8 kts | 301° |
| 2026-05-05 22:03 | 42.36496 | -71.01618 | 21 ft | 8 kts | 24° |
| 2026-05-05 22:03 | 42.36541 | -71.01567 | 22 ft | 8 kts | 48° |
| 2026-05-05 22:04 | 42.36546 | -71.01559 | 23 ft | 0 kts | 50° |